Time;durP1;ratioP1;P1;durP2;ratioP2;P2;SDS_P1;SDS_P2;PMS_P1;PMS_P2;Temp;Humidity;BMP_temperature;BMP_pressure;BME280_temperature;BME280_humidity;BME280_pressure;Samples;Min_cycle;Max_cycle;Signal;HPM_P1;HPM_P2
2021/03/12 00:00:29;;;;;;;0.70;0.63;;;11.10;99.90;;;;;;20539627;28;20208;-74
2021/03/12 00:10:32;;;;;;;0.80;0.80;;;11.40;99.90;;;;;;20537347;28;20246;-77
2021/03/12 00:20:38;;;;;;;0.93;0.30;;;11.30;99.90;;;;;;20532988;28;20208;-78
2021/03/12 00:30:42;;;;;;;1.27;1.17;;;11.10;99.90;;;;;;20551659;28;20567;-77
2021/03/12 00:40:50;;;;;;;0.30;0.30;;;11.20;99.90;;;;;;20532440;28;20232;-76
2021/03/12 00:50:53;;;;;;;1.70;1.17;;;11.50;99.90;;;;;;20549654;28;20231;-78
2021/03/12 01:00:58;;;;;;;1.60;0.93;;;11.80;99.90;;;;;;20552728;28;20207;-76
2021/03/12 01:11:02;;;;;;;2.17;1.73;;;11.90;99.90;;;;;;20533203;28;20839;-74
2021/03/12 01:21:06;;;;;;;0.90;0.63;;;11.50;99.90;;;;;;20511965;28;20615;-74
2021/03/12 01:31:09;;;;;;;1.40;1.30;;;11.20;99.90;;;;;;20451990;28;20276;-75
2021/03/12 01:41:12;;;;;;;3.13;0.83;;;11.10;99.90;;;;;;20451449;28;20225;-74
2021/03/12 01:51:15;;;;;;;0.53;0.53;;;11.00;99.90;;;;;;20450877;28;20236;-80
2021/03/12 02:01:19;;;;;;;1.87;1.00;;;10.90;99.90;;;;;;20452294;28;20233;-75
2021/03/12 02:11:22;;;;;;;1.63;1.00;;;10.60;99.90;;;;;;20450245;28;20224;-76
2021/03/12 02:21:30;;;;;;;0.43;0.43;;;10.50;99.90;;;;;;20504877;28;20398;-76
2021/03/12 02:31:36;;;;;;;1.90;1.40;;;10.70;99.90;;;;;;20556287;28;20243;-75
2021/03/12 02:41:40;;;;;;;0.53;0.53;;;10.40;99.90;;;;;;20555616;28;20553;-75
2021/03/12 02:51:46;;;;;;;0.90;0.90;;;10.40;99.90;;;;;;20553444;28;20224;-76
2021/03/12 03:01:51;;;;;;;0.57;0.53;;;10.80;99.90;;;;;;20555648;28;20188;-77
2021/03/12 03:11:56;;;;;;;0.50;0.50;;;12.90;99.90;;;;;;20554573;28;20228;-74
2021/03/12 03:22:00;;;;;;;0.23;0.23;;;13.00;99.90;;;;;;20525829;28;20203;-75
2021/03/12 03:32:05;;;;;;;0.97;0.97;;;12.90;99.90;;;;;;20465559;28;20224;-75
2021/03/12 03:42:11;;;;;;;20.67;2.20;;;12.90;99.90;;;;;;20461681;28;20279;-77
2021/03/12 03:52:17;;;;;;;0.63;0.63;;;12.80;99.90;;;;;;20458046;28;20326;-77
2021/03/12 04:02:20;;;;;;;2.97;1.23;;;12.90;99.90;;;;;;20461163;28;20200;-76
2021/03/12 04:12:25;;;;;;;1.97;1.07;;;12.80;99.90;;;;;;20473499;28;20225;-76
2021/03/12 04:22:28;;;;;;;2.00;0.57;;;12.70;99.90;;;;;;20503953;28;20800;-75
2021/03/12 04:32:33;;;;;;;0.70;0.70;;;12.90;99.90;;;;;;20536360;28;20807;-76
2021/03/12 04:42:37;;;;;;;0.43;0.43;;;13.00;99.90;;;;;;20535521;28;20248;-75
2021/03/12 04:52:41;;;;;;;0.27;0.20;;;13.00;99.90;;;;;;20538535;28;20630;-77
2021/03/12 05:02:44;;;;;;;0.83;0.60;;;13.20;99.90;;;;;;20534791;28;20208;-76
2021/03/12 05:12:48;;;;;;;1.33;1.03;;;13.20;99.90;;;;;;20535236;28;20411;-75
2021/03/12 05:23:06;;;;;;;0.47;0.47;;;13.30;99.90;;;;;;20536209;28;20200;-75
2021/03/12 05:33:09;;;;;;;0.40;0.40;;;13.30;99.90;;;;;;20534001;28;20234;-76
2021/03/12 05:43:12;;;;;;;0.20;0.17;;;13.10;99.90;;;;;;20534742;28;20235;-76
2021/03/12 05:53:27;;;;;;;1.07;0.50;;;12.60;99.90;;;;;;20533071;28;20362;-75
2021/03/12 06:03:30;;;;;;;0.20;0.10;;;12.50;99.90;;;;;;20533254;28;20744;-75
2021/03/12 06:13:48;;;;;;;0.20;0.10;;;12.40;99.90;;;;;;20538406;28;20239;-78
2021/03/12 06:23:51;;;;;;;0.20;0.00;;;12.30;99.90;;;;;;20477522;28;20271;-75
2021/03/12 06:34:08;;;;;;;0.20;0.10;;;12.50;99.90;;;;;;20452673;28;20526;-75
2021/03/12 06:44:30;;;;;;;0.20;0.10;;;12.70;99.90;;;;;;20453498;28;20225;-76
2021/03/12 06:54:34;;;;;;;1.70;1.60;;;12.90;99.90;;;;;;20450482;28;20671;-75
2021/03/12 07:04:38;;;;;;;2.10;0.50;;;13.20;99.90;;;;;;20451215;28;20207;-76
2021/03/12 07:14:41;;;;;;;0.20;0.10;;;13.50;99.90;;;;;;20462114;28;20236;-75
2021/03/12 07:24:44;;;;;;;1.03;0.60;;;13.90;99.90;;;;;;20525937;28;20198;-75
2021/03/12 07:34:48;;;;;;;0.47;0.20;;;14.00;99.90;;;;;;20555019;28;20223;-75
2021/03/12 07:44:57;;;;;;;1.03;0.30;;;14.00;99.90;;;;;;20535637;28;20237;-76
2021/03/12 07:55:02;;;;;;;0.20;0.20;;;14.30;99.90;;;;;;20550459;28;20228;-72
2021/03/12 08:05:40;;;;;;;1.60;0.50;;;14.30;99.90;;;;;;20478027;28;20211;-80
2021/03/12 08:16:04;;;;;;;1.00;1.00;;;14.30;99.90;;;;;;20455354;28;20595;-77
2021/03/12 08:26:06;;;;;;;0.20;0.20;;;14.40;99.90;;;;;;20534021;28;20200;-76
2021/03/12 08:36:25;;;;;;;0.30;0.20;;;14.60;99.90;;;;;;20538972;28;20246;-79
2021/03/12 08:46:30;;;;;;;7.73;0.60;;;14.80;99.90;;;;;;20536039;28;20597;-76
2021/03/12 08:56:35;;;;;;;0.30;0.30;;;15.00;99.90;;;;;;20502021;28;20228;-87
2021/03/12 09:06:39;;;;;;;0.63;0.40;;;15.30;99.90;;;;;;20533764;28;20290;-75
2021/03/12 09:16:48;;;;;;;0.20;0.17;;;15.40;99.90;;;;;;20533820;28;21131;-79
2021/03/12 09:26:51;;;;;;;0.37;0.37;;;15.50;99.90;;;;;;20533955;28;20658;-81
2021/03/12 09:36:55;;;;;;;1.23;0.47;;;15.40;99.90;;;;;;20527115;28;20223;-78
2021/03/12 09:46:59;;;;;;;0.30;0.27;;;15.70;99.90;;;;;;20530008;28;20322;-76
2021/03/12 09:57:08;;;;;;;0.20;0.07;;;15.60;99.90;;;;;;20532409;28;20331;-78
2021/03/12 10:07:12;;;;;;;3.80;0.93;;;15.50;99.90;;;;;;20532788;28;20780;-79
2021/03/12 10:17:19;;;;;;;1.80;0.60;;;15.60;99.90;;;;;;20531412;28;20290;-76
2021/03/12 10:27:23;;;;;;;1.80;0.43;;;16.50;99.90;;;;;;20534133;28;20212;-80
2021/03/12 10:37:33;;;;;;;0.93;0.33;;;16.40;99.90;;;;;;20530648;28;20243;-80
2021/03/12 10:47:37;;;;;;;0.20;0.10;;;15.70;99.90;;;;;;20545344;28;20490;-78
2021/03/12 10:57:46;;;;;;;0.20;0.20;;;15.60;99.90;;;;;;20535764;28;20673;-78
2021/03/12 11:07:50;;;;;;;0.20;0.10;;;16.10;99.90;;;;;;20509464;28;20212;-81
2021/03/12 11:17:54;;;;;;;0.73;0.40;;;15.80;99.90;;;;;;20502218;28;20441;-70
2021/03/12 11:27:57;;;;;;;0.50;0.50;;;16.10;99.90;;;;;;20517385;28;20636;-82
2021/03/12 11:38:01;;;;;;;0.40;0.40;;;16.10;99.90;;;;;;20506772;28;20225;-79
2021/03/12 11:48:06;;;;;;;0.40;0.40;;;16.30;99.90;;;;;;20504525;28;20284;-80
2021/03/12 11:58:09;;;;;;;0.20;0.10;;;18.10;99.90;;;;;;20514781;28;20762;-82
2021/03/12 12:08:13;;;;;;;0.27;0.27;;;17.10;99.90;;;;;;20546497;28;20243;-83
2021/03/12 12:18:17;;;;;;;4.57;1.20;;;16.60;99.90;;;;;;20519315;28;20742;-79
2021/03/12 12:28:31;;;;;;;0.20;0.10;;;16.30;99.90;;;;;;20516457;28;20196;-88
2021/03/12 12:38:35;;;;;;;12.83;0.63;;;15.90;99.90;;;;;;20598073;28;20207;-83
2021/03/12 12:48:38;;;;;;;0.20;0.20;;;15.50;99.90;;;;;;20499461;28;20690;-84
2021/03/12 12:58:52;;;;;;;0.20;0.10;;;15.30;99.90;;;;;;20491535;28;20263;-82
2021/03/12 13:08:55;;;;;;;0.20;0.07;;;14.80;99.90;;;;;;20539469;28;21025;-81
2021/03/12 13:18:59;;;;;;;0.20;0.20;;;14.50;99.90;;;;;;20527556;28;20208;-80
2021/03/12 13:29:17;;;;;;;0.20;0.10;;;14.60;99.90;;;;;;20480341;28;20600;-79
2021/03/12 13:39:21;;;;;;;0.40;0.30;;;15.80;99.90;;;;;;20534990;28;20585;-80
2021/03/12 13:49:24;;;;;;;1.13;0.70;;;15.20;99.90;;;;;;20523154;28;20581;-81
2021/03/12 13:59:38;;;;;;;1.67;0.33;;;15.10;99.90;;;;;;20534406;28;20261;-82
2021/03/12 14:09:41;;;;;;;0.20;0.10;;;14.80;99.90;;;;;;20532454;28;20307;-81
2021/03/12 14:19:45;;;;;;;0.20;0.20;;;14.30;99.90;;;;;;20508868;28;20292;-81
2021/03/12 14:30:04;;;;;;;11.10;0.37;;;14.60;99.90;;;;;;20503515;28;20234;-83
2021/03/12 14:40:09;;;;;;;0.30;0.30;;;14.60;99.90;;;;;;20530698;28;20287;-82
2021/03/12 14:50:12;;;;;;;0.50;0.30;;;14.30;99.90;;;;;;20536360;28;20251;-82
2021/03/12 15:00:32;;;;;;;0.70;0.50;;;14.40;99.90;;;;;;20515237;28;20909;-75
2021/03/12 15:10:35;;;;;;;0.47;0.30;;;15.40;99.90;;;;;;20498415;28;20308;-80
2021/03/12 15:20:39;;;;;;;0.20;0.10;;;15.90;99.90;;;;;;20507832;28;20200;-87
2021/03/12 15:30:52;;;;;;;0.20;0.10;;;15.80;99.90;;;;;;20541310;28;20247;-76
2021/03/12 15:40:56;;;;;;;1.63;1.23;;;15.70;99.90;;;;;;20551881;28;20246;-77
2021/03/12 15:50:59;;;;;;;0.97;0.57;;;15.90;99.90;;;;;;20461665;28;20237;-78
2021/03/12 16:01:19;;;;;;;0.20;0.10;;;15.50;99.90;;;;;;20461738;28;20208;-77
2021/03/12 16:11:22;;;;;;;2.43;1.87;;;15.30;99.90;;;;;;20503065;28;20302;-76
2021/03/12 16:21:26;;;;;;;1.00;0.80;;;15.10;99.90;;;;;;20501983;28;20259;-77
2021/03/12 16:31:40;;;;;;;1.23;0.30;;;14.90;99.90;;;;;;20519083;28;20234;-79
2021/03/12 16:41:44;;;;;;;0.40;0.30;;;14.70;99.90;;;;;;20535972;28;20318;-80
2021/03/12 16:51:46;;;;;;;0.30;0.20;;;14.50;99.90;;;;;;20537651;28;21123;-79
2021/03/12 17:02:10;;;;;;;12.87;1.40;;;14.30;99.90;;;;;;20518248;28;20766;-80
2021/03/12 17:12:13;;;;;;;1.17;0.83;;;14.00;99.90;;;;;;20490706;28;20226;-78
2021/03/12 17:22:17;;;;;;;0.60;0.60;;;14.10;99.90;;;;;;20500121;28;20706;-79
2021/03/12 17:32:32;;;;;;;0.67;0.57;;;14.10;99.90;;;;;;20492831;28;20412;-74
2021/03/12 17:42:36;;;;;;;0.20;0.00;;;13.90;99.90;;;;;;20481093;28;20228;-77
2021/03/12 17:52:39;;;;;;;2.47;1.23;;;13.50;99.90;;;;;;20494724;28;20231;-74
2021/03/12 18:02:59;;;;;;;0.43;0.43;;;13.30;99.90;;;;;;20520034;28;20260;-73
2021/03/12 18:13:03;;;;;;;0.57;0.57;;;13.10;99.90;;;;;;20522371;28;20243;-73
2021/03/12 18:23:07;;;;;;;2.87;0.83;;;13.00;99.90;;;;;;20476375;28;20258;-79
2021/03/12 18:33:18;;;;;;;0.27;0.13;;;12.90;99.90;;;;;;20740658;23;20239;-73
2021/03/12 18:43:22;;;;;;;0.87;0.43;;;12.80;99.90;;;;;;20640704;28;20601;-74
2021/03/12 18:53:25;;;;;;;0.63;0.63;;;12.70;99.90;;;;;;20646475;28;20237;-73
2021/03/12 19:03:41;;;;;;;0.47;0.40;;;12.90;99.90;;;;;;20666810;28;20588;-74
2021/03/12 19:13:44;;;;;;;0.27;0.27;;;12.80;99.90;;;;;;20660752;28;20222;-73
2021/03/12 19:23:48;;;;;;;1.47;0.67;;;12.80;99.90;;;;;;20630348;28;20762;-73
2021/03/12 19:34:05;;;;;;;1.77;0.57;;;12.60;99.90;;;;;;20599497;28;20263;-73
2021/03/12 19:44:09;;;;;;;0.60;0.60;;;12.40;99.90;;;;;;20622448;28;20617;-75
2021/03/12 19:54:12;;;;;;;1.47;1.33;;;12.00;99.90;;;;;;20591965;28;20219;-74
2021/03/12 20:04:32;;;;;;;0.20;0.20;;;11.90;99.90;;;;;;20689086;28;20589;-73
2021/03/12 20:14:35;;;;;;;1.30;0.73;;;11.30;99.90;;;;;;20657149;28;20325;-73
2021/03/12 20:24:39;;;;;;;9.93;0.83;;;11.50;99.90;;;;;;20652710;28;20672;-73
2021/03/12 20:34:49;;;;;;;1.47;1.37;;;11.40;99.90;;;;;;20655577;28;20245;-72
2021/03/12 20:44:53;;;;;;;0.30;0.30;;;11.30;99.90;;;;;;20615213;28;20198;-75
2021/03/12 20:54:56;;;;;;;2.77;0.97;;;11.40;99.90;;;;;;20617038;28;20231;-74
2021/03/12 21:15:30;;;;;;;0.37;0.37;;;11.40;99.90;;;;;;20618618;28;20553;-74
2021/03/12 21:25:34;;;;;;;0.57;0.57;;;11.10;99.90;;;;;;20630747;28;20266;-74
2021/03/12 21:35:38;;;;;;;0.20;0.20;;;10.90;99.90;;;;;;20603669;28;20546;-74
2021/03/12 21:45:41;;;;;;;0.47;0.47;;;10.60;99.90;;;;;;20633192;28;20253;-74
2021/03/12 21:55:45;;;;;;;0.50;0.50;;;10.30;99.90;;;;;;20638382;28;20565;-73
2021/03/12 22:05:57;;;;;;;1.47;1.10;;;10.10;99.90;;;;;;20620059;28;20498;-75
2021/03/12 22:15:59;;;;;;;1.23;0.50;;;10.00;99.90;;;;;;20606154;28;20223;-72
2021/03/12 22:26:03;;;;;;;0.87;0.87;;;9.60;99.90;;;;;;20632108;28;20694;-74
2021/03/12 22:36:19;;;;;;;0.30;0.20;;;9.60;99.90;;;;;;20623310;28;20719;-77
2021/03/12 22:46:22;;;;;;;0.20;0.13;;;9.70;99.90;;;;;;20623252;28;20665;-75
2021/03/12 22:56:25;;;;;;;0.60;0.43;;;9.60;99.90;;;;;;20624379;28;20220;-77
2021/03/12 23:06:40;;;;;;;1.07;0.80;;;9.80;99.90;;;;;;20618636;28;20214;-76
2021/03/12 23:16:44;;;;;;;0.20;0.20;;;9.60;99.90;;;;;;20621202;28;20242;-77
2021/03/12 23:26:50;;;;;;;0.30;0.20;;;9.70;99.90;;;;;;20605700;28;20223;-77
2021/03/12 23:37:04;;;;;;;0.53;0.53;;;9.90;99.90;;;;;;20611829;28;20656;-76
2021/03/12 23:47:08;;;;;;;0.73;0.60;;;9.90;99.90;;;;;;20640132;28;20227;-76
2021/03/12 23:57:11;;;;;;;0.43;0.43;;;9.90;99.90;;;;;;20584691;28;20302;-78
